Columbiaville, NY (12050)

7:30 AM EST on January 25, 2015 (GMT -0500)
Columbia-Greene Community College | Change Station
CLOSE
Current Station
Personal Weather Station
Location: Hudson, NY
Elevation: 161 ft
Nearby Weather Stations
Active Advisory: Winter Storm Watch

Elev 161 ft 42.22 °N, 73.83 °W | Updated 18 seconds ago

Overcast
Overcast
31.0 °F
Feels Like 24 °F
N
8.0
Wind Variable Wind from East
Gusts 10.0 mph

Today
High -- | Low -- °F
--% Chance of Precip.
Yesterday
High -- | Low -- °F
Precip. -- in
7:15 AM 4:59 PM
Waxing Crescent, 32% visible
Pressure 29.50 in
Visibility 2.5 miles
Clouds Scattered Clouds 2500 ft
Mostly Cloudy 3600 ft
Overcast 4500 ft
Windchill 24 °F
Dew Point 14 °F
Humidity 52%
Rainfall 0.00 in
Snow Depth Not available.
UV 0 out of 12
Pollen .10 out of 12
Air Quality Not available.
Flu Activity Not available.
SPECI KPSF 251216Z AUTO 30023G37KT 2 1/2SM -SN SCT025 BKN036 OVC045 M02/M06 A2950 RMK AO2 PK WND 29037/1216 VIS 1 1/4V5 SNB1156 P0000 T10171061

More Conditions Fewer Conditions

Pressure 29.50 in
Visibility 2.5 miles
Clouds Scattered Clouds 2500 ft
Mostly Cloudy 3600 ft
Overcast 4500 ft
Windchill 24 °F
Dew Point 14 °F
Humidity 52%
Rainfall 0.00 in
Snow Depth Not available.
UV 0 out of 12
Pollen .10 out of 12
Air Quality Not available.
Flu Activity Not available.
SPECI KPSF 251216Z AUTO 30023G37KT 2 1/2SM -SN SCT025 BKN036 OVC045 M02/M06 A2950 RMK AO2 PK WND 29037/1216 VIS 1 1/4V5 SNB1156 P0000 T10171061

More Conditions Fewer Conditions

10-Day Weather Forecast

Almanac

Astronomy

Jan. 25, 2015 Rise Set
Actual Time
Civil Twilight
Nautical Twilight
Astronomical Twilight
Moon
Length of Visible Light
Length of Day
Tomorrow will be .
, % of the Moon is Illuminated

Today's Extremes

State Highs State Lows

Community

WunderPhotos

Upload Photos

1,789,873 photos uploaded!

WunderBlogs® & News

Nearby

Air Quality

  Air Quality AQ Index Pollutant
Not available.

Snow Depth

Station Depth Elevation

Earthquake Activity

City Distance Mag. Time & Date
Minimum magnitude displayed is 2.5.

Coastal Water Temperatures

Place Temperature

Nearby Weather Stations